createdAt,value
2023-05-24T00:01:25.977Z,4.73
2023-05-24T00:03:59.158Z,4.70
2023-05-24T00:06:28.546Z,4.80
2023-05-24T00:08:57.639Z,4.50
2023-05-24T00:11:27.893Z,4.30
2023-05-24T00:13:56.757Z,4.20
2023-05-24T00:16:25.822Z,4.63
2023-05-24T00:18:55.992Z,4.50
2023-05-24T00:21:25.065Z,4.33
2023-05-24T00:23:53.958Z,4.43
2023-05-24T00:26:22.960Z,4.63
2023-05-24T00:28:57.391Z,4.10
2023-05-24T00:31:26.275Z,4.60
2023-05-24T00:33:56.598Z,4.70
2023-05-24T00:36:25.380Z,5.00
2023-05-24T00:38:54.266Z,4.70
2023-05-24T00:41:22.952Z,4.40
2023-05-24T00:43:51.618Z,4.50
2023-05-24T00:46:23.155Z,4.17
2023-05-24T00:48:52.397Z,5.07
2023-05-24T00:51:22.902Z,4.77
2023-05-24T00:53:59.727Z,4.80
2023-05-24T00:56:29.564Z,4.60
2023-05-24T00:58:58.640Z,5.23
2023-05-24T01:01:31.103Z,4.70
2023-05-24T01:04:00.533Z,4.20
2023-05-24T01:06:33.240Z,4.40
2023-05-24T01:09:18.585Z,4.40
2023-05-24T01:12:01.437Z,4.70
2023-05-24T01:14:37.084Z,5.23
2023-05-24T01:17:11.284Z,4.77
2023-05-24T01:19:53.539Z,5.10
2023-05-24T01:23:04.056Z,4.60
2023-05-24T01:26:09.522Z,4.43
2023-05-24T01:28:40.977Z,4.87
2023-05-24T01:31:10.859Z,4.70
2023-05-24T01:33:43.410Z,4.77
2023-05-24T01:36:12.543Z,4.77
2023-05-24T01:38:42.705Z,4.53
2023-05-24T01:41:22.942Z,4.80
2023-05-24T01:44:01.445Z,4.73
2023-05-24T01:46:37.579Z,4.80
2023-05-24T01:49:14.488Z,4.73
2023-05-24T01:51:51.252Z,4.73
2023-05-24T01:54:24.517Z,5.10
2023-05-24T01:56:55.287Z,5.03
2023-05-24T01:59:28.267Z,4.73
2023-05-24T02:01:57.302Z,4.77
2023-05-24T02:04:30.630Z,5.10
2023-05-24T02:06:59.601Z,5.33
2023-05-24T02:09:28.334Z,5.00
2023-05-24T02:11:57.093Z,4.90
2023-05-24T02:14:27.276Z,5.33
2023-05-24T02:16:59.410Z,4.93
2023-05-24T02:19:28.471Z,4.87
2023-05-24T02:21:57.233Z,5.30
2023-05-24T02:24:25.949Z,4.70
2023-05-24T02:26:55.592Z,5.00
2023-05-24T02:29:24.562Z,5.20
2023-05-24T02:31:56.924Z,5.50
2023-05-24T02:34:26.692Z,5.60
2023-05-24T02:37:49.908Z,5.50
2023-05-24T02:40:18.783Z,5.50
2023-05-24T02:42:47.395Z,5.37
2023-05-24T02:45:16.269Z,5.63
2023-05-24T02:47:48.069Z,5.43
2023-05-24T02:50:17.063Z,5.50
2023-05-24T02:52:45.878Z,5.60
2023-05-24T02:55:14.694Z,6.10
2023-05-24T02:57:43.599Z,5.57
2023-05-24T03:00:14.092Z,5.70
2023-05-24T03:02:44.691Z,5.50
2023-05-24T03:05:15.364Z,5.37
2023-05-24T03:07:44.260Z,5.40
2023-05-24T03:10:15.114Z,5.47
2023-05-24T03:12:44.790Z,5.70
2023-05-24T03:15:13.725Z,5.37
2023-05-24T03:17:42.712Z,5.43
2023-05-24T03:20:12.702Z,5.90
2023-05-24T03:22:43.042Z,5.20
2023-05-24T03:25:11.968Z,6.00
2023-05-24T03:27:40.680Z,6.00
2023-05-24T03:31:06.942Z,5.30
2023-05-24T03:33:36.237Z,5.53
2023-05-24T03:36:05.771Z,5.43
2023-05-24T03:38:36.574Z,5.73
2023-05-24T03:41:05.485Z,5.00
2023-05-24T03:43:35.698Z,5.87
2023-05-24T03:46:08.054Z,5.60
2023-05-24T03:48:36.871Z,5.90
2023-05-24T03:51:06.898Z,5.10
2023-05-24T03:54:52.529Z,5.33
2023-05-24T03:57:22.695Z,5.47
2023-05-24T03:59:51.364Z,5.30
2023-05-24T04:02:20.224Z,5.37
2023-05-24T04:04:49.008Z,5.30
2023-05-24T04:07:17.895Z,5.50
2023-05-24T04:09:46.779Z,5.43
2023-05-24T04:12:15.613Z,5.73
2023-05-24T04:14:45.961Z,5.10
2023-05-24T04:17:15.222Z,5.53
2023-05-24T04:19:46.954Z,5.47
2023-05-24T04:22:15.776Z,5.43
2023-05-24T04:24:44.629Z,5.30
2023-05-24T04:27:13.702Z,5.30
2023-05-24T04:29:43.049Z,5.30
2023-05-24T04:32:14.989Z,4.90
2023-05-24T04:34:44.008Z,5.20
2023-05-24T04:37:17.470Z,5.07
2023-05-24T04:39:48.333Z,4.80
2023-05-24T04:42:17.446Z,4.47
2023-05-24T04:44:46.187Z,4.57
2023-05-24T04:47:16.555Z,4.40
2023-05-24T04:49:45.307Z,4.07
2023-05-24T04:52:16.426Z,4.40
2023-05-24T04:54:45.424Z,3.60
2023-05-24T04:57:14.147Z,3.97
2023-05-24T04:59:42.963Z,3.57
2023-05-24T05:02:12.168Z,4.00
2023-05-24T05:05:33.167Z,3.40
2023-05-24T05:08:03.888Z,3.53
2023-05-24T05:10:32.671Z,3.30
2023-05-24T05:13:30.748Z,3.10
2023-05-24T05:15:59.376Z,3.67
2023-05-24T05:18:28.235Z,3.50
2023-05-24T05:20:57.394Z,3.80
2023-05-24T05:23:27.606Z,3.50
2023-05-24T05:25:56.689Z,2.90
2023-05-24T05:28:28.340Z,3.08
2023-05-24T05:30:57.370Z,3.03
2023-05-24T05:33:26.291Z,3.00
2023-05-24T05:35:55.170Z,3.40
2023-05-24T05:38:23.967Z,3.25
2023-05-24T05:40:54.188Z,3.47
2023-05-24T05:43:23.041Z,3.30
2023-05-24T05:45:51.813Z,3.43
2023-05-24T05:48:20.689Z,3.40
2023-05-24T05:50:49.513Z,3.73
2023-05-24T05:53:18.242Z,3.13
2023-05-24T05:55:47.060Z,3.20
2023-05-24T05:58:17.266Z,3.23
2023-05-24T06:00:45.988Z,3.13
2023-05-24T06:03:14.953Z,3.20
2023-05-24T06:05:43.847Z,3.47
2023-05-24T06:08:12.601Z,2.97
2023-05-24T06:10:41.523Z,3.10
2023-05-24T06:13:10.518Z,3.40
2023-05-24T06:15:40.749Z,3.40
2023-05-24T06:18:09.781Z,3.00
2023-05-24T06:20:38.767Z,3.07
2023-05-24T06:23:07.400Z,3.20
2023-05-24T06:25:36.210Z,3.13
2023-05-24T06:28:05.061Z,2.83
2023-05-24T06:30:34.355Z,3.27
2023-05-24T06:33:04.689Z,3.30
2023-05-24T06:35:33.317Z,2.90
2023-05-24T06:38:02.109Z,3.30
2023-05-24T06:40:30.825Z,3.00
2023-05-24T06:42:59.880Z,3.10
2023-05-24T06:45:28.819Z,3.10
2023-05-24T06:47:57.893Z,3.10
2023-05-24T06:50:28.877Z,3.03
2023-05-24T06:52:57.672Z,3.17
2023-05-24T06:55:26.706Z,3.20
2023-05-24T06:57:55.489Z,4.00
2023-05-24T07:00:24.511Z,3.43
2023-05-24T07:02:53.256Z,3.63
2023-05-24T07:05:22.400Z,3.00
2023-05-24T07:07:52.744Z,3.77
2023-05-24T07:10:21.661Z,3.47
2023-05-24T07:12:51.581Z,3.30
2023-05-24T07:15:20.473Z,3.35
2023-05-24T07:17:49.499Z,3.17
2023-05-24T07:20:22.825Z,3.10
2023-05-24T07:22:53.490Z,3.33
2023-05-24T07:25:23.144Z,3.30
2023-05-24T07:27:51.971Z,3.63
2023-05-24T07:30:31.633Z,3.47
2023-05-24T07:33:02.186Z,3.00
2023-05-24T07:35:31.291Z,3.60
2023-05-24T07:38:01.907Z,2.87
2023-05-24T07:40:30.777Z,3.60
2023-05-24T07:42:59.651Z,3.17
2023-05-24T07:45:28.545Z,3.70
2023-05-24T07:47:57.410Z,3.80
2023-05-24T07:50:26.733Z,3.43
2023-05-24T07:52:56.168Z,3.70
2023-05-24T07:55:28.156Z,3.60
2023-05-24T07:57:58.608Z,3.27
2023-05-24T08:00:27.980Z,3.20
2023-05-24T08:02:57.555Z,4.00
2023-05-24T08:05:26.298Z,3.50
2023-05-24T08:07:55.120Z,3.57
2023-05-24T08:10:25.316Z,3.97
2023-05-24T08:12:56.379Z,3.47
2023-05-24T08:15:27.218Z,3.50
2023-05-24T08:17:56.171Z,3.40
2023-05-24T08:20:25.548Z,4.27
2023-05-24T08:22:54.257Z,3.67
2023-05-24T08:25:23.000Z,3.50
2023-05-24T08:27:53.556Z,3.70
2023-05-24T08:30:22.375Z,3.00
2023-05-24T08:32:51.284Z,3.30
2023-05-24T08:35:21.467Z,7.70
2023-05-24T08:37:50.807Z,3.40
2023-05-24T08:40:24.158Z,3.80
2023-05-24T08:42:54.817Z,3.70
2023-05-24T08:45:23.911Z,3.80
2023-05-24T08:47:53.121Z,4.03
2023-05-24T08:50:22.460Z,3.92
2023-05-24T08:52:52.729Z,3.53
2023-05-24T08:55:22.947Z,3.45
2023-05-24T08:57:53.427Z,3.60
2023-05-24T09:00:23.016Z,3.50
2023-05-24T09:02:52.240Z,3.47
2023-05-24T09:05:22.127Z,3.17
2023-05-24T09:07:51.808Z,3.45
2023-05-24T09:10:22.871Z,3.50
2023-05-24T09:12:58.925Z,3.43
2023-05-24T09:15:28.743Z,3.78
2023-05-24T09:17:57.542Z,3.43
2023-05-24T09:20:26.719Z,3.20
2023-05-24T09:22:55.990Z,3.63
2023-05-24T09:25:24.790Z,3.38
2023-05-24T09:27:57.240Z,3.30
2023-05-24T09:30:26.113Z,3.47
2023-05-24T09:32:59.218Z,4.95
2023-05-24T09:35:28.478Z,4.13
2023-05-24T09:38:00.106Z,3.25
2023-05-24T09:40:29.718Z,3.30
2023-05-24T09:43:09.107Z,3.28
2023-05-24T09:45:44.487Z,3.15
2023-05-24T09:48:13.825Z,3.55
2023-05-24T09:50:43.346Z,3.88
2023-05-24T09:53:12.420Z,3.42
2023-05-24T09:55:41.239Z,3.35
2023-05-24T09:58:13.001Z,3.47
2023-05-24T10:00:43.781Z,2.88
2023-05-24T10:03:13.915Z,3.55
2023-05-24T10:05:45.854Z,3.25
2023-05-24T10:08:15.281Z,3.40
2023-05-24T10:10:45.125Z,3.70
2023-05-24T10:13:17.922Z,3.15
2023-05-24T10:15:47.077Z,4.15
2023-05-24T10:18:17.027Z,3.30
2023-05-24T10:21:12.154Z,3.58
2023-05-24T10:24:31.164Z,3.45
2023-05-24T10:27:01.817Z,3.58
2023-05-24T10:29:45.342Z,3.58
2023-05-24T10:32:21.868Z,3.30
2023-05-24T10:34:55.758Z,3.10
2023-05-24T10:37:26.522Z,2.95
2023-05-24T10:39:55.441Z,3.50
2023-05-24T10:42:24.958Z,3.65
2023-05-24T10:44:58.285Z,3.50
2023-05-24T10:47:29.021Z,3.47
2023-05-24T10:50:00.093Z,3.63
2023-05-24T10:52:37.213Z,4.50
2023-05-24T10:55:08.229Z,3.58
2023-05-24T10:57:37.289Z,3.53
2023-05-24T11:03:04.368Z,3.70
2023-05-24T11:05:53.212Z,3.33
2023-05-24T11:08:27.578Z,3.30
2023-05-24T11:11:23.244Z,3.33
2023-05-24T11:13:58.826Z,3.20
2023-05-24T11:16:40.448Z,3.28
2023-05-24T11:19:18.661Z,3.25
2023-05-24T11:21:49.088Z,3.25
2023-05-24T11:24:18.803Z,3.20
2023-05-24T11:26:48.001Z,3.65
2023-05-24T11:29:18.187Z,2.83
2023-05-24T11:31:52.758Z,3.53
2023-05-24T11:34:21.939Z,2.90
2023-05-24T11:36:52.195Z,3.05
2023-05-24T11:39:21.031Z,3.25
2023-05-24T11:41:49.918Z,3.10
2023-05-24T11:44:20.311Z,3.30
2023-05-24T11:46:49.059Z,2.95
2023-05-24T11:49:19.722Z,3.30
2023-05-24T11:51:48.377Z,3.10
2023-05-24T11:54:20.103Z,2.95
2023-05-24T11:56:48.943Z,3.30
2023-05-24T11:59:19.121Z,3.35
2023-05-24T12:01:47.716Z,3.30
2023-05-24T12:04:16.391Z,2.92
2023-05-24T12:06:46.695Z,3.35
2023-05-24T12:09:18.153Z,3.15
2023-05-24T12:11:50.839Z,3.40
2023-05-24T12:14:20.897Z,3.58
2023-05-24T12:16:50.767Z,3.40
2023-05-24T12:19:32.447Z,2.90
2023-05-24T12:22:07.212Z,3.33
2023-05-24T12:24:36.740Z,2.90
2023-05-24T12:27:08.031Z,2.80
2023-05-24T12:29:38.712Z,3.45
2023-05-24T12:32:13.249Z,3.35
2023-05-24T12:34:43.200Z,2.70
2023-05-24T12:37:14.299Z,2.97
2023-05-24T12:39:44.510Z,2.72
2023-05-24T12:42:14.306Z,3.22
2023-05-24T12:44:45.128Z,2.97
2023-05-24T12:47:14.162Z,3.08
2023-05-24T12:49:43.695Z,2.95
2023-05-24T12:52:14.788Z,2.88
2023-05-24T12:54:43.534Z,3.13
2023-05-24T12:57:12.195Z,2.97
2023-05-24T12:59:41.986Z,2.72
2023-05-24T13:02:10.884Z,2.53
2023-05-24T13:04:39.430Z,3.22
2023-05-24T13:07:08.374Z,3.58
2023-05-24T13:09:38.551Z,3.28
2023-05-24T13:12:08.793Z,3.38
2023-05-24T13:14:37.973Z,2.88
2023-05-24T13:17:07.815Z,3.45
2023-05-24T13:19:36.745Z,3.22
2023-05-24T13:22:05.661Z,3.03
2023-05-24T13:24:34.509Z,2.95
2023-05-24T13:27:05.098Z,3.33
2023-05-24T13:29:42.262Z,3.15
2023-05-24T13:32:14.462Z,3.30
2023-05-24T13:34:43.509Z,2.92
2023-05-24T13:37:12.299Z,3.20
2023-05-24T13:39:41.032Z,3.35
2023-05-24T13:42:16.439Z,2.90
2023-05-24T13:44:45.228Z,3.10
2023-05-24T13:47:23.792Z,3.05
2023-05-24T13:50:00.848Z,3.15
2023-05-24T13:52:29.680Z,3.20
2023-05-24T13:54:58.611Z,3.40
2023-05-24T13:57:43.150Z,3.10
2023-05-24T14:00:18.518Z,3.17
2023-05-24T14:02:47.790Z,3.00
2023-05-24T14:07:48.286Z,3.00
2023-05-24T14:10:19.301Z,3.42
2023-05-24T14:13:04.275Z,3.47
2023-05-24T14:15:40.232Z,2.88
2023-05-24T14:18:09.218Z,3.30
2023-05-24T14:20:40.169Z,3.33
2023-05-24T14:23:10.062Z,3.22
2023-05-24T14:25:38.902Z,3.00
2023-05-24T14:28:09.817Z,2.78
2023-05-24T14:30:42.317Z,3.22
2023-05-24T14:33:11.676Z,2.78
2023-05-24T14:35:40.645Z,2.88
2023-05-24T14:38:11.032Z,2.65
2023-05-24T14:41:06.514Z,2.85
2023-05-24T14:43:37.173Z,2.97
2023-05-24T14:46:06.054Z,3.05
2023-05-24T14:48:35.462Z,2.80
2023-05-24T14:51:04.190Z,3.03
2023-05-24T14:53:32.937Z,3.03
2023-05-24T14:56:03.904Z,2.90
2023-05-24T14:58:35.643Z,3.05
2023-05-24T15:01:04.421Z,2.70
2023-05-24T15:03:33.539Z,2.65
2023-05-24T15:06:02.667Z,2.80
2023-05-24T15:08:31.430Z,3.20
2023-05-24T15:11:00.350Z,2.95
2023-05-24T15:13:29.291Z,3.10
2023-05-24T15:16:00.668Z,2.88
2023-05-24T15:18:31.815Z,2.80
2023-05-24T15:21:01.271Z,3.10
2023-05-24T15:23:29.905Z,2.90
2023-05-24T15:25:58.693Z,3.60
2023-05-24T15:28:27.285Z,3.30
2023-05-24T15:30:57.183Z,3.25
2023-05-24T15:33:27.972Z,3.08
2023-05-24T15:35:56.738Z,2.70
2023-05-24T15:38:25.609Z,2.95
2023-05-24T15:40:54.401Z,2.90
2023-05-24T15:43:23.106Z,2.80
2023-05-24T15:45:52.168Z,2.92
2023-05-24T15:48:20.979Z,3.08
2023-05-24T15:53:23.038Z,2.90
2023-05-24T15:55:51.821Z,2.95
2023-05-24T15:58:20.561Z,2.95
2023-05-24T16:00:51.177Z,3.25
2023-05-24T16:03:21.067Z,3.10
2023-05-24T16:05:51.646Z,2.80
2023-05-24T16:08:23.385Z,2.90
2023-05-24T16:10:52.101Z,2.88
2023-05-24T16:13:21.794Z,3.53
2023-05-24T16:15:52.726Z,3.30
2023-05-24T16:18:23.795Z,3.17
2023-05-24T16:20:56.307Z,3.05
2023-05-24T16:23:25.116Z,3.20
2023-05-24T16:25:53.841Z,3.10
2023-05-24T16:28:24.387Z,3.47
2023-05-24T16:30:56.186Z,3.30
2023-05-24T16:33:25.449Z,3.70
2023-05-24T16:36:02.885Z,3.53
2023-05-24T16:38:32.148Z,3.60
2023-05-24T16:41:00.833Z,3.22
2023-05-24T16:43:29.459Z,3.10
2023-05-24T16:46:23.915Z,3.38
2023-05-24T16:48:58.286Z,3.10
2023-05-24T16:51:28.384Z,3.33
2023-05-24T16:53:57.477Z,3.10
2023-05-24T16:56:27.473Z,3.00
2023-05-24T16:58:56.374Z,3.38
2023-05-24T17:01:25.131Z,3.25
2023-05-24T17:03:54.227Z,2.85
2023-05-24T17:06:28.805Z,2.70
2023-05-24T17:09:01.473Z,2.80
2023-05-24T17:11:30.213Z,2.83
2023-05-24T17:13:59.070Z,2.75
2023-05-24T17:16:28.821Z,2.70
2023-05-24T17:18:57.568Z,2.78
2023-05-24T17:21:30.769Z,2.78
2023-05-24T17:24:01.390Z,3.00
2023-05-24T17:26:29.901Z,2.97
2023-05-24T17:28:58.505Z,3.10
2023-05-24T17:31:29.212Z,2.80
2023-05-24T17:33:58.865Z,3.05
2023-05-24T17:37:22.627Z,3.08
2023-05-24T17:39:52.734Z,3.00
2023-05-24T17:42:21.430Z,3.08
2023-05-24T17:44:50.069Z,2.72
2023-05-24T17:47:19.130Z,2.90
2023-05-24T17:49:47.911Z,3.25
2023-05-24T17:52:16.739Z,2.88
2023-05-24T17:54:45.541Z,3.28
2023-05-24T17:57:15.957Z,3.17
2023-05-24T17:59:44.756Z,2.80
2023-05-24T18:02:13.428Z,2.83
2023-05-24T18:04:42.176Z,2.70
2023-05-24T18:07:11.153Z,2.90
2023-05-24T18:09:40.065Z,2.97
2023-05-24T18:12:36.803Z,2.53
2023-05-24T18:15:07.201Z,3.05
2023-05-24T18:17:36.855Z,2.63
2023-05-24T18:20:06.734Z,2.60
2023-05-24T18:22:35.381Z,2.40
2023-05-24T18:25:04.244Z,3.10
2023-05-24T18:27:33.027Z,2.67
2023-05-24T18:30:04.043Z,2.70
2023-05-24T18:32:32.859Z,2.80
2023-05-24T18:35:01.834Z,2.92
2023-05-24T18:37:30.821Z,2.92
2023-05-24T18:40:00.464Z,3.80
2023-05-24T18:42:29.545Z,3.30
2023-05-24T18:44:58.347Z,2.80
2023-05-24T18:47:31.176Z,3.00
2023-05-24T18:50:00.624Z,3.13
2023-05-24T18:52:29.459Z,3.20
2023-05-24T18:54:59.336Z,3.37
2023-05-24T18:57:29.678Z,3.20
2023-05-24T18:59:58.349Z,3.50
2023-05-24T19:02:28.648Z,3.20
2023-05-24T19:04:58.913Z,3.43
2023-05-24T19:07:27.644Z,3.40
2023-05-24T19:09:56.558Z,3.00
2023-05-24T19:12:25.710Z,3.13
2023-05-24T19:14:54.532Z,3.27
2023-05-24T19:17:24.275Z,3.50
2023-05-24T19:19:54.710Z,3.20
2023-05-24T19:22:23.718Z,3.20
2023-05-24T19:25:12.569Z,3.40
2023-05-24T19:27:54.793Z,3.20
2023-05-24T19:30:39.042Z,3.87
2023-05-24T19:33:08.233Z,3.27
2023-05-24T19:35:38.505Z,2.83
2023-05-24T19:38:07.950Z,3.60
2023-05-24T19:40:36.752Z,3.33
2023-05-24T19:43:05.556Z,3.40
2023-05-24T19:45:38.985Z,3.53
2023-05-24T19:48:09.803Z,3.40
2023-05-24T19:50:40.700Z,3.33
2023-05-24T19:53:09.984Z,3.20
2023-05-24T19:55:38.699Z,3.87
2023-05-24T19:58:07.483Z,3.47
2023-05-24T20:00:38.188Z,3.37
2023-05-24T20:03:06.989Z,3.00
2023-05-24T20:05:35.707Z,3.23
2023-05-24T20:08:05.919Z,3.20
2023-05-24T20:10:36.526Z,3.20
2023-05-24T20:13:05.407Z,3.63
2023-05-24T20:15:34.244Z,3.40
2023-05-24T20:18:03.066Z,3.30
2023-05-24T20:20:32.500Z,3.17
2023-05-24T20:23:01.457Z,3.70
2023-05-24T20:25:31.883Z,3.30
2023-05-24T20:28:00.657Z,3.30
2023-05-24T20:30:29.916Z,3.50
2023-05-24T20:32:58.714Z,3.30
2023-05-24T20:35:27.594Z,3.47
2023-05-24T20:37:56.387Z,3.33
2023-05-24T20:40:26.172Z,3.20
2023-05-24T20:42:56.542Z,3.60
2023-05-24T20:45:25.687Z,3.30
2023-05-24T20:47:54.445Z,3.13
2023-05-24T20:50:23.433Z,3.13
2023-05-24T20:52:52.178Z,3.27
2023-05-24T20:55:21.226Z,3.40
2023-05-24T20:57:49.906Z,3.37
2023-05-24T21:00:20.609Z,3.50
2023-05-24T21:02:49.453Z,3.40
2023-05-24T21:05:18.269Z,3.43
2023-05-24T21:07:47.074Z,3.70
2023-05-24T21:10:18.642Z,3.40
2023-05-24T21:12:48.942Z,3.20
2023-05-24T21:15:19.451Z,3.63
2023-05-24T21:17:48.397Z,3.43
2023-05-24T21:20:17.355Z,3.50
2023-05-24T21:22:46.305Z,3.67
2023-05-24T21:25:15.011Z,3.60
2023-05-24T21:27:43.886Z,3.40
2023-05-24T21:30:13.640Z,3.40
2023-05-24T21:32:43.830Z,3.50
2023-05-24T21:35:13.874Z,3.30
2023-05-24T21:37:42.662Z,3.43
2023-05-24T21:40:12.471Z,3.50
2023-05-24T21:42:41.202Z,3.20
2023-05-24T21:45:10.605Z,3.50
2023-05-24T21:47:39.382Z,3.73
2023-05-24T21:50:10.456Z,3.87
2023-05-24T21:52:39.536Z,3.50
2023-05-24T21:55:08.801Z,4.10
2023-05-24T21:57:37.593Z,3.67
2023-05-24T22:00:07.095Z,3.50
2023-05-24T22:02:35.875Z,3.67
2023-05-24T22:05:05.404Z,3.90
2023-05-24T22:07:37.302Z,3.70
2023-05-24T22:10:07.478Z,4.00
2023-05-24T22:12:36.280Z,3.50
2023-05-24T22:15:06.081Z,4.03
2023-05-24T22:17:37.196Z,3.87
2023-05-24T22:20:06.571Z,3.70
2023-05-24T22:22:37.506Z,4.20
2023-05-24T22:25:06.994Z,3.47
2023-05-24T22:27:36.071Z,3.50
2023-05-24T22:30:05.424Z,3.73
2023-05-24T22:32:34.315Z,3.70
2023-05-24T22:35:03.244Z,3.73
2023-05-24T22:37:32.566Z,4.17
2023-05-24T22:40:02.720Z,4.00
2023-05-24T22:42:31.522Z,3.93
2023-05-24T22:45:00.453Z,4.03
2023-05-24T22:47:33.488Z,4.00
2023-05-24T22:50:02.689Z,3.70
2023-05-24T22:52:33.945Z,3.80
2023-05-24T22:55:04.697Z,4.07
2023-05-24T22:57:33.437Z,4.10
2023-05-24T23:00:02.309Z,3.80
2023-05-24T23:02:31.142Z,3.97
2023-05-24T23:05:00.397Z,3.90
2023-05-24T23:07:29.297Z,4.37
2023-05-24T23:09:59.843Z,4.47
2023-05-24T23:12:29.929Z,4.13
2023-05-24T23:14:59.648Z,4.43
2023-05-24T23:17:28.291Z,4.00
2023-05-24T23:19:57.076Z,3.97
2023-05-24T23:22:26.427Z,4.13
2023-05-24T23:24:55.282Z,4.60
2023-05-24T23:27:24.062Z,4.07
2023-05-24T23:30:24.494Z,4.27
2023-05-24T23:32:53.279Z,4.23
2023-05-24T23:35:22.119Z,4.10
2023-05-24T23:37:50.746Z,4.30
2023-05-24T23:40:19.371Z,4.20
2023-05-24T23:42:48.200Z,4.87
2023-05-24T23:45:17.015Z,4.20
2023-05-24T23:47:47.323Z,4.83
2023-05-24T23:50:17.600Z,4.17
2023-05-24T23:52:47.161Z,4.20
2023-05-24T23:55:15.956Z,4.20
2023-05-24T23:57:46.002Z,4.60
